This is the latest recevied weather packets stored in our database for station/object K0SDS. If no packets are shown the sender has not sent any weather packets the latest 10 day(s).
| Time | Temp. | Humidity | Pressure | Rain* | Wind** | Luminosity | Snow |
|---|---|---|---|---|---|---|---|
| 1777573652 | 17.78° C | 58% | 1017 hPa | 0 mm | - | 284 W/m² | - |
| 1777573349 | 17.78° C | 56% | 1017.2 hPa | 0 mm | - | 297 W/m² | - |
| 1777573044 | 17.78° C | 56% | 1017.2 hPa | 0 mm | - | 344 W/m² | - |
| 1777572741 | 18.33° C | 56% | 1017.3 hPa | 0 mm | - | 173 W/m² | - |
| 1777572436 | 18.89° C | 57% | 1017.1 hPa | 0 mm | - | 271 W/m² | - |
| 1777572132 | 18.89° C | 56% | 1017.3 hPa | 0 mm | - | 398 W/m² | - |
| 1777571827 | 18.33° C | 59% | 1017.3 hPa | 0 mm | - | 386 W/m² | - |
| 1777571524 | 18.33° C | 54% | 1017.4 hPa | 0 mm | - | 459 W/m² | - |
| 1777571221 | 17.78° C | 56% | 1017.4 hPa | 0 mm | - | 631 W/m² | - |
| 1777570915 | 17.78° C | 55% | 1017.4 hPa | 0 mm | - | 822 W/m² | - |
| 1777570606 | 17.78° C | 59% | 1017.8 hPa | 0 mm | - | 327 W/m² | - |
| 1777570304 | 17.78° C | 54% | 1017.7 hPa | 0 mm | - | 449 W/m² | - |
| 1777569999 | 17.78° C | 56% | 1017.7 hPa | 0 mm | - | 335 W/m² | - |
| 1777569695 | 17.22° C | 55% | 1017.6 hPa | 0 mm | - | 534 W/m² | - |
| 1777569391 | 16.67° C | 56% | 1018.1 hPa | 0 mm | - | 253 W/m² | - |
| 1777569087 | 16.67° C | 54% | 1017.8 hPa | 0 mm | - | 241 W/m² | - |
| 1777568784 | 17.22° C | 55% | 1018.1 hPa | 0 mm | - | 272 W/m² | - |
| 1777568482 | 17.22° C | 56% | 1017.9 hPa | 0 mm | - | 291 W/m² | - |
| 1777568178 | 17.22° C | 55% | 1017.9 hPa | 0 mm | - | 293 W/m² | - |
| 1777567875 | 17.78° C | 55% | 1017.9 hPa | 0 mm | - | 278 W/m² | - |
| 1777567571 | 17.78° C | 54% | 1017.9 hPa | 0 mm | - | 750 W/m² | - |
| 1777567269 | 16.67° C | 58% | 1018 hPa | 0 mm | - | 629 W/m² | - |
| 1777566967 | 16.67° C | 57% | 1018.3 hPa | 0 mm | - | 231 W/m² | - |
| 1777566664 | 17.22° C | 53% | 1018.3 hPa | 0 mm | - | 180 W/m² | - |
| 1777566362 | 17.22° C | 55% | 1018.4 hPa | 0 mm | - | 333 W/m² | - |
* Rain latest hour (hover to see other rain measurements)
** Current wind speed in m/s (hover to see current wind gust speed)